Time;durP1;ratioP1;P1;durP2;ratioP2;P2;SDS_P1;SDS_P2;PMS_P1;PMS_P2;Temp;Humidity;BMP_temperature;BMP_pressure;BME280_temperature;BME280_humidity;BME280_pressure;Samples;Min_cycle;Max_cycle;Signal;HPM_P1;HPM_P2
2022/07/08 00:01:55;;;;;;;2.55;1.50;;;;;;;24.52;41.26;102940.22;4757063;30;20054;-77
2022/07/08 00:04:21;;;;;;;5.80;1.90;;;;;;;24.50;41.32;102939.53;4756293;30;20105;-77
2022/07/08 00:06:47;;;;;;;2.90;1.75;;;;;;;24.51;41.19;102945.69;4756214;30;20055;-77
2022/07/08 00:09:12;;;;;;;3.40;1.80;;;;;;;24.44;41.37;102942.03;4756498;30;20135;-77
2022/07/08 00:11:39;;;;;;;4.78;1.60;;;;;;;24.50;41.40;102946.69;4755268;30;20097;-77
2022/07/08 00:14:04;;;;;;;4.35;1.42;;;;;;;24.47;41.57;102947.84;4756387;30;20044;-77
2022/07/08 00:16:30;;;;;;;4.80;1.90;;;;;;;24.47;41.51;102945.19;4756931;30;20969;-76
2022/07/08 00:18:56;;;;;;;2.88;1.65;;;;;;;24.46;41.55;102951.50;4756135;30;20044;-76
2022/07/08 00:21:21;;;;;;;2.10;1.63;;;;;;;24.47;41.51;102945.19;4754894;30;20052;-77
2022/07/08 00:23:47;;;;;;;3.80;1.73;;;;;;;24.39;41.60;102939.81;4753386;30;20051;-77
2022/07/08 00:26:13;;;;;;;1.70;1.45;;;;;;;24.47;41.54;102947.84;4755350;30;20388;-77
2022/07/08 00:28:38;;;;;;;3.13;1.60;;;;;;;24.46;41.55;102954.19;4757951;30;20051;-77
2022/07/08 00:31:04;;;;;;;2.60;1.58;;;;;;;24.43;41.40;102956.34;4756923;30;20055;-77
2022/07/08 00:33:30;;;;;;;3.38;1.70;;;;;;;24.42;41.51;102952.84;4757379;30;20787;-77
2022/07/08 00:35:55;;;;;;;2.25;1.50;;;;;;;24.43;41.43;102962.50;4759436;30;20064;-77
2022/07/08 00:38:21;;;;;;;2.85;1.50;;;;;;;24.41;41.56;102949.31;4758195;30;20050;-77
2022/07/08 00:40:46;;;;;;;2.67;1.65;;;;;;;24.43;41.61;102946.50;4758367;30;20051;-76
2022/07/08 00:43:26;;;;;;;3.65;1.80;;;;;;;24.40;41.73;102949.47;4755799;30;20031;-76
2022/07/08 00:45:51;;;;;;;1.90;1.35;;;;;;;24.38;41.64;102946.97;4755498;30;20057;-76
2022/07/08 00:48:17;;;;;;;3.72;1.80;;;;;;;24.37;41.73;102947.13;4754133;30;20510;-76
2022/07/08 00:50:42;;;;;;;3.03;1.60;;;;;;;24.34;41.80;102953.59;4753562;30;20064;-78
2022/07/08 00:53:08;;;;;;;2.65;1.52;;;;;;;24.38;42.04;102946.97;4752242;30;20075;-76
2022/07/08 00:55:33;;;;;;;2.45;1.60;;;;;;;24.34;41.90;102947.44;4754759;30;20040;-76
2022/07/08 00:57:59;;;;;;;2.88;1.23;;;;;;;24.32;41.87;102936.13;4753639;30;20071;-76
2022/07/08 01:00:25;;;;;;;1.98;1.48;;;;;;;24.31;41.96;102940.63;4770120;29;20059;-76
2022/07/08 01:02:51;;;;;;;1.90;1.50;;;;;;;24.30;41.68;102941.63;4754485;30;20063;-76
2022/07/08 01:05:16;;;;;;;4.90;1.77;;;;;;;24.40;41.74;102949.47;4756027;30;20052;-76
2022/07/08 01:07:43;;;;;;;3.50;1.73;;;;;;;24.37;41.83;102942.63;4757897;30;20052;-76
2022/07/08 01:10:09;;;;;;;3.38;1.77;;;;;;;24.33;41.76;102938.63;4757097;30;20052;-76
2022/07/08 01:12:35;;;;;;;1.35;1.20;;;;;;;24.36;41.86;102945.47;4756572;30;20151;-76
2022/07/08 01:15:00;;;;;;;3.00;1.48;;;;;;;24.35;41.79;102938.47;4751232;30;20051;-76
2022/07/08 01:17:27;;;;;;;2.67;1.50;;;;;;;24.35;41.79;102938.47;4757365;30;20040;-77
2022/07/08 01:19:53;;;;;;;1.67;1.50;;;;;;;24.37;41.73;102934.66;4756885;30;20071;-76
2022/07/08 01:22:18;;;;;;;3.40;1.67;;;;;;;24.33;41.76;102929.81;4754960;30;20119;-77
2022/07/08 01:24:44;;;;;;;2.42;1.50;;;;;;;24.32;41.98;102939.63;4757131;30;20062;-76
2022/07/08 01:27:09;;;;;;;2.40;1.45;;;;;;;24.33;41.91;102933.31;4755647;30;20051;-76
2022/07/08 01:29:35;;;;;;;3.10;1.60;;;;;;;24.35;41.86;102941.13;4754309;30;20039;-76
2022/07/08 01:32:01;;;;;;;2.53;1.65;;;;;;;24.31;41.88;102939.78;4755909;30;20048;-76
2022/07/08 01:34:27;;;;;;;2.55;1.48;;;;;;;24.28;41.93;102940.91;4754405;30;20056;-77
2022/07/08 01:36:52;;;;;;;2.83;1.80;;;;;;;24.34;41.83;102942.13;4752402;30;20542;-76
2022/07/08 01:39:18;;;;;;;2.22;1.70;;;;;;;24.26;42.18;102936.75;4758067;30;20046;-76
2022/07/08 01:41:43;;;;;;;2.67;1.40;;;;;;;24.31;42.00;102937.13;4754186;30;20036;-75
2022/07/08 01:44:09;;;;;;;1.70;1.45;;;;;;;24.32;42.08;102939.63;4769496;29;20522;-75
2022/07/08 01:46:35;;;;;;;3.22;1.50;;;;;;;24.30;41.97;102952.25;4757529;30;20605;-78
2022/07/08 01:49:00;;;;;;;3.40;1.90;;;;;;;24.24;42.02;102939.56;4754974;30;20050;-78
2022/07/08 01:51:26;;;;;;;2.25;1.63;;;;;;;24.25;41.91;102943.06;4757138;30;20048;-76
2022/07/08 01:53:51;;;;;;;1.65;1.48;;;;;;;24.27;41.83;102941.91;4753161;30;20082;-75
2022/07/08 01:56:17;;;;;;;1.70;1.27;;;;;;;24.22;42.17;102940.69;4754132;30;20043;-75
2022/07/08 01:58:42;;;;;;;2.75;1.58;;;;;;;24.26;42.13;102936.75;4753411;30;20040;-75
2022/07/08 02:01:08;;;;;;;2.10;1.42;;;;;;;24.22;42.06;102935.38;4755657;30;20051;-75
2022/07/08 02:03:33;;;;;;;3.28;1.45;;;;;;;24.25;42.12;102932.41;4756299;30;20461;-75
2022/07/08 02:05:59;;;;;;;1.83;1.42;;;;;;;24.23;42.11;102931.72;4756049;30;20479;-75
2022/07/08 02:08:24;;;;;;;3.22;1.50;;;;;;;24.18;42.09;102931.34;4753478;30;20131;-75
2022/07/08 02:13:34;;;;;;;1.98;1.15;;;;;;;24.21;42.19;102933.69;4754087;30;20663;-76
2022/07/08 02:16:00;;;;;;;2.45;1.38;;;;;;;24.12;42.11;102927.50;4754329;30;20059;-78
2022/07/08 02:18:25;;;;;;;1.90;1.30;;;;;;;24.18;42.14;102937.50;4752665;30;20043;-78
2022/07/08 02:20:51;;;;;;;2.17;1.40;;;;;;;24.26;42.07;102944.72;4755364;30;20043;-78
2022/07/08 02:23:16;;;;;;;2.47;1.27;;;;;;;24.17;41.94;102930.53;4753312;30;20073;-76
2022/07/08 02:25:42;;;;;;;2.22;1.83;;;;;;;24.21;42.34;102933.69;4757753;30;20078;-76
2022/07/08 02:28:07;;;;;;;1.98;1.30;;;;;;;24.20;42.05;102935.53;4752501;30;20062;-76
2022/07/08 02:30:33;;;;;;;5.53;1.77;;;;;;;24.17;42.26;102943.00;4756368;30;20062;-76
2022/07/08 02:32:58;;;;;;;2.25;1.52;;;;;;;24.19;42.24;102943.66;4752543;30;20047;-76
2022/07/08 02:35:24;;;;;;;2.45;1.73;;;;;;;24.19;42.00;102943.66;4754284;30;20068;-76
2022/07/08 02:37:49;;;;;;;2.08;1.40;;;;;;;24.16;42.29;102947.50;4753636;30;20722;-76
2022/07/08 02:40:15;;;;;;;2.88;1.73;;;;;;;24.13;42.35;102955.78;4753803;30;20052;-75
2022/07/08 02:42:40;;;;;;;1.83;1.17;;;;;;;24.17;42.15;102953.66;4751823;30;20085;-77
2022/07/08 02:45:06;;;;;;;3.60;1.80;;;;;;;24.15;42.20;102955.63;4756058;30;20058;-77
2022/07/08 02:47:31;;;;;;;2.33;1.60;;;;;;;24.17;42.24;102954.47;4754011;30;20063;-77
2022/07/08 02:49:57;;;;;;;2.42;1.48;;;;;;;24.09;42.17;102947.28;4754835;30;20063;-77
2022/07/08 02:52:23;;;;;;;2.30;1.23;;;;;;;24.19;42.09;102956.97;4756115;30;20051;-77
2022/07/08 02:54:48;;;;;;;3.40;1.50;;;;;;;24.12;42.43;102954.13;4753791;30;20494;-77
2022/07/08 02:57:14;;;;;;;2.42;1.55;;;;;;;24.16;42.20;102954.63;4750372;30;20578;-77
2022/07/08 02:59:39;;;;;;;2.47;1.55;;;;;;;24.11;42.35;102953.28;4755468;30;20051;-77
2022/07/08 03:02:05;;;;;;;2.03;1.33;;;;;;;24.07;42.31;102961.75;4754325;30;20070;-77
2022/07/08 03:04:30;;;;;;;2.95;1.40;;;;;;;24.11;42.33;102957.78;4753471;30;20059;-77
2022/07/08 03:06:56;;;;;;;1.75;1.40;;;;;;;24.08;42.41;102955.44;4754774;30;20445;-77
2022/07/08 03:09:21;;;;;;;2.63;1.63;;;;;;;24.08;42.51;102961.59;4751862;30;20058;-77
2022/07/08 03:11:47;;;;;;;1.75;1.40;;;;;;;24.08;42.52;102963.44;4759529;30;20066;-77
2022/07/08 03:14:12;;;;;;;1.33;1.20;;;;;;;24.08;42.06;102958.94;4751727;30;20040;-77
2022/07/08 03:16:37;;;;;;;2.95;1.60;;;;;;;24.08;42.24;102958.94;4754383;30;20072;-77
2022/07/08 03:19:03;;;;;;;3.38;1.75;;;;;;;24.07;42.23;102959.94;4754239;30;20691;-77
2022/07/08 03:21:28;;;;;;;3.08;1.40;;;;;;;24.08;42.24;102963.44;4753417;30;20043;-77
2022/07/08 03:23:54;;;;;;;1.55;1.20;;;;;;;24.06;42.40;102963.59;4753672;30;20040;-77
2022/07/08 03:26:19;;;;;;;1.50;1.40;;;;;;;24.09;42.36;102971.25;4757118;30;20051;-77
2022/07/08 03:28:45;;;;;;;2.70;1.70;;;;;;;24.11;42.36;102965.78;4757941;30;20056;-77
2022/07/08 03:31:11;;;;;;;3.40;1.40;;;;;;;24.03;42.35;102963.03;4757772;30;20392;-77
2022/07/08 03:33:36;;;;;;;2.42;1.40;;;;;;;24.06;42.74;102970.72;4753411;30;20082;-77
2022/07/08 03:36:02;;;;;;;2.03;1.35;;;;;;;24.04;42.34;102962.03;4757643;30;20112;-77
2022/07/08 03:38:27;;;;;;;2.00;1.13;;;;;;;24.07;42.45;102969.75;4741394;30;20071;-77
2022/07/08 03:43:37;;;;;;;1.45;1.10;;;;;;;24.05;42.46;102971.69;4756124;30;20059;-77
2022/07/08 03:46:02;;;;;;;1.80;1.27;;;;;;;24.03;42.34;102966.53;4754348;30;20125;-77
2022/07/08 03:48:28;;;;;;;2.47;1.20;;;;;;;24.00;42.57;102958.88;4756148;30;20134;-77
2022/07/08 03:50:53;;;;;;;2.40;1.33;;;;;;;24.03;42.59;102963.03;4756507;30;20618;-77
2022/07/08 03:53:19;;;;;;;3.85;1.70;;;;;;;24.00;42.44;102972.16;4754584;30;20055;-77
2022/07/08 03:55:46;;;;;;;2.63;1.65;;;;;;;24.03;42.60;102974.50;4755022;30;20044;-77
2022/07/08 03:58:11;;;;;;;2.92;1.40;;;;;;;24.00;42.59;102968.69;4755642;30;20763;-77
2022/07/08 04:00:37;;;;;;;3.50;1.50;;;;;;;23.96;42.72;102964.66;4756543;30;20043;-77
2022/07/08 04:03:02;;;;;;;1.92;1.50;;;;;;;23.98;42.50;102974.16;4756619;30;20064;-77
2022/07/08 04:05:28;;;;;;;2.38;1.50;;;;;;;24.01;42.53;102973.84;4754245;30;20152;-77
2022/07/08 04:07:53;;;;;;;2.20;1.27;;;;;;;23.98;42.91;102976.81;4769642;29;20051;-77
2022/07/08 04:10:19;;;;;;;2.38;1.50;;;;;;;23.96;42.77;102972.66;4756371;30;20489;-77
2022/07/08 04:12:45;;;;;;;2.67;1.60;;;;;;;23.97;42.62;102977.81;4758227;30;20044;-77
2022/07/08 04:15:12;;;;;;;2.67;1.20;;;;;;;24.01;42.45;102975.66;4758295;30;20513;-77
2022/07/08 04:17:38;;;;;;;3.38;1.65;;;;;;;23.97;42.51;102980.47;4756591;30;20514;-77
2022/07/08 04:20:04;;;;;;;2.42;1.40;;;;;;;23.95;42.50;102971.81;4757801;30;20077;-77
2022/07/08 04:22:29;;;;;;;1.50;1.40;;;;;;;23.99;42.63;102985.63;4753530;30;20040;-77
2022/07/08 04:24:55;;;;;;;1.92;1.23;;;;;;;23.95;42.57;102979.78;4758699;30;20055;-77
2022/07/08 04:27:20;;;;;;;2.65;1.50;;;;;;;23.97;42.45;102990.28;4755966;30;20047;-77
2022/07/08 04:29:46;;;;;;;2.47;1.38;;;;;;;23.95;42.47;102993.09;4755968;30;20038;-77
2022/07/08 04:32:11;;;;;;;2.10;1.33;;;;;;;23.95;42.60;102987.78;4757551;30;20040;-77
2022/07/08 04:34:37;;;;;;;1.50;1.15;;;;;;;23.93;42.60;102989.75;4756639;30;20044;-76
2022/07/08 04:37:02;;;;;;;3.75;1.30;;;;;;;23.98;42.63;102991.94;4755762;30;20083;-77
2022/07/08 04:39:28;;;;;;;2.65;1.30;;;;;;;23.95;42.58;102982.47;4756418;30;20491;-77
2022/07/08 04:41:53;;;;;;;3.35;1.60;;;;;;;23.96;42.75;102986.78;4757739;30;20050;-77
2022/07/08 04:44:19;;;;;;;2.13;1.42;;;;;;;23.92;42.70;102987.25;4755977;30;20043;-77
2022/07/08 04:46:44;;;;;;;3.60;1.38;;;;;;;23.93;42.38;102983.59;4754851;30;20044;-76
2022/07/08 04:49:10;;;;;;;1.98;1.40;;;;;;;23.92;42.78;102987.25;4754792;30;20050;-76
2022/07/08 04:51:36;;;;;;;2.08;1.38;;;;;;;23.92;42.53;102989.91;4754660;30;20047;-76
2022/07/08 04:54:01;;;;;;;2.42;1.33;;;;;;;23.87;42.66;102986.88;4755064;30;20514;-76
2022/07/08 04:56:27;;;;;;;1.70;1.40;;;;;;;23.88;42.21;102988.53;4756983;30;20054;-76
2022/07/08 04:58:52;;;;;;;2.40;1.50;;;;;;;23.90;42.73;102987.41;4754606;30;20051;-76
2022/07/08 05:01:18;;;;;;;1.77;1.33;;;;;;;23.89;42.79;102992.91;4756024;30;20046;-76
2022/07/08 05:03:44;;;;;;;1.80;1.30;;;;;;;23.85;42.64;102995.00;4757169;30;20036;-76
2022/07/08 05:06:09;;;;;;;1.52;1.23;;;;;;;23.87;42.66;103006.31;4755674;30;20367;-76
2022/07/08 05:08:35;;;;;;;1.80;1.40;;;;;;;23.86;42.72;102999.34;4753748;30;20060;-76
2022/07/08 05:11:00;;;;;;;1.67;1.23;;;;;;;23.89;42.75;103003.53;4757466;30;20101;-75
2022/07/08 05:13:26;;;;;;;3.75;1.38;;;;;;;23.85;42.75;103007.47;4755655;30;20054;-75
2022/07/08 05:15:51;;;;;;;2.70;1.48;;;;;;;23.88;42.53;102999.19;4756707;30;20048;-76
2022/07/08 05:18:17;;;;;;;3.10;1.58;;;;;;;23.86;42.86;102998.50;4759049;30;20047;-76
2022/07/08 05:20:42;;;;;;;2.30;1.40;;;;;;;23.85;42.79;102999.50;4738578;30;20707;-76
2022/07/08 05:23:08;;;;;;;1.48;1.33;;;;;;;23.90;42.77;102986.59;4755331;30;20059;-76
2022/07/08 05:25:34;;;;;;;2.35;1.27;;;;;;;23.85;42.71;102994.16;4755537;30;20549;-76
2022/07/08 05:27:59;;;;;;;1.73;1.15;;;;;;;23.83;42.67;102996.16;4755881;30;20039;-76
2022/07/08 05:30:25;;;;;;;2.55;1.17;;;;;;;23.87;42.65;103001.00;4757693;30;20039;-76
2022/07/08 05:32:50;;;;;;;3.85;1.60;;;;;;;23.89;42.77;103007.03;4753018;30;20055;-76
2022/07/08 05:35:16;;;;;;;2.25;1.45;;;;;;;23.81;42.61;103001.63;4753814;30;20559;-76
2022/07/08 05:37:41;;;;;;;1.30;1.20;;;;;;;23.85;42.82;103004.81;4754179;30;20056;-76
2022/07/08 05:40:09;;;;;;;1.65;1.40;;;;;;;23.85;42.86;103004.81;4756025;30;20411;-76
2022/07/08 05:42:34;;;;;;;3.10;1.67;;;;;;;23.78;42.81;103002.78;4755922;30;20067;-76
2022/07/08 05:45:00;;;;;;;1.23;1.10;;;;;;;23.81;42.82;102999.81;4754491;30;20051;-76
2022/07/08 05:47:25;;;;;;;2.88;1.63;;;;;;;23.82;43.01;103008.63;4755903;30;20070;-76
2022/07/08 05:49:51;;;;;;;3.08;1.45;;;;;;;23.85;42.58;103004.81;4755371;30;20051;-76
2022/07/08 05:52:16;;;;;;;2.17;1.25;;;;;;;23.86;42.85;103007.31;4753924;29;20040;-76
2022/07/08 05:54:45;;;;;;;1.75;1.20;;;;;;;23.83;42.76;103010.28;4755898;30;20047;-76
2022/07/08 05:57:14;;;;;;;2.40;1.33;;;;;;;23.82;42.90;103005.97;4752119;30;20051;-76
2022/07/08 05:59:41;;;;;;;1.90;1.50;;;;;;;23.82;42.69;103011.28;4754869;30;20055;-76
2022/07/08 06:02:07;;;;;;;2.63;1.40;;;;;;;23.90;42.64;103013.19;4758229;30;20601;-76
2022/07/08 06:04:32;;;;;;;1.58;1.05;;;;;;;23.84;43.21;103016.44;4756428;30;20055;-72
2022/07/08 06:06:58;;;;;;;3.40;1.25;;;;;;;23.78;43.22;103009.94;4752498;30;20480;-67
2022/07/08 06:09:24;;;;;;;2.92;1.38;;;;;;;23.88;42.74;103021.34;4739020;30;20044;-67
2022/07/08 06:11:50;;;;;;;2.35;1.55;;;;;;;23.90;42.70;103013.19;4755198;30;20139;-67
2022/07/08 06:14:15;;;;;;;2.33;1.38;;;;;;;23.91;42.78;103018.34;4753486;30;20042;-67
2022/07/08 06:16:41;;;;;;;1.90;1.33;;;;;;;23.89;43.05;103019.50;4760158;30;20641;-67
2022/07/08 06:19:06;;;;;;;3.55;1.63;;;;;;;23.91;42.76;103030.81;4758863;30;20039;-67
2022/07/08 06:21:32;;;;;;;2.60;1.48;;;;;;;23.93;42.77;103028.84;4758315;30;20106;-67
2022/07/08 06:23:58;;;;;;;3.15;1.52;;;;;;;23.96;42.70;103028.53;4755957;30;20125;-67
2022/07/08 06:26:24;;;;;;;2.95;1.60;;;;;;;23.93;42.62;103028.84;4757369;30;20478;-67
2022/07/08 06:28:50;;;;;;;1.75;1.23;;;;;;;23.95;42.85;103034.84;4754528;30;20100;-68
2022/07/08 06:31:15;;;;;;;2.58;1.35;;;;;;;23.90;42.88;103026.50;4757129;30;20158;-67
2022/07/08 06:33:41;;;;;;;2.63;1.38;;;;;;;23.88;42.91;103029.31;4752277;30;20531;-67
2022/07/08 06:36:06;;;;;;;2.58;1.55;;;;;;;23.91;42.68;103034.31;4751644;30;20060;-67
2022/07/08 06:38:32;;;;;;;2.38;1.33;;;;;;;23.91;42.77;103029.00;4752601;30;20795;-67
2022/07/08 06:40:58;;;;;;;2.05;1.70;;;;;;;23.86;43.07;103027.78;4754631;30;20125;-67
2022/07/08 06:43:23;;;;;;;1.52;1.17;;;;;;;23.91;42.78;103033.50;4750868;30;20046;-67
2022/07/08 06:45:50;;;;;;;2.90;1.42;;;;;;;23.89;43.08;103030.97;4751676;30;20571;-67
2022/07/08 06:48:15;;;;;;;2.65;1.50;;;;;;;23.87;42.93;103030.28;4754576;30;20055;-67
2022/07/08 06:50:41;;;;;;;8.85;2.60;;;;;;;23.89;42.84;103030.16;4749673;30;20074;-67
2022/07/08 06:53:06;;;;;;;6.15;2.20;;;;;;;23.88;42.77;103033.78;4752556;30;20499;-67
2022/07/08 06:55:32;;;;;;;7.13;2.65;;;;;;;23.89;42.77;103024.81;4753323;30;20039;-67
2022/07/08 06:57:58;;;;;;;10.88;2.30;;;;;;;23.89;42.72;103028.31;4753912;30;20040;-67
2022/07/08 07:00:23;;;;;;;10.30;3.22;;;;;;;23.75;43.23;103028.84;4755049;30;20035;-67
2022/07/08 07:02:50;;;;;;;10.63;2.65;;;;;;;23.87;43.23;103027.59;4759401;30;20527;-67
2022/07/08 07:05:15;;;;;;;8.15;2.95;;;;;;;23.92;42.91;103032.50;4761707;30;20067;-67
2022/07/08 07:07:41;;;;;;;10.00;2.50;;;;;;;23.93;42.82;103027.03;4758144;30;20059;-67
2022/07/08 07:10:07;;;;;;;14.40;3.60;;;;;;;23.93;42.76;103035.00;4758089;30;20052;-67
2022/07/08 07:12:32;;;;;;;8.80;2.97;;;;;;;23.93;42.86;103042.97;4759897;30;20040;-67
2022/07/08 07:14:58;;;;;;;15.52;3.17;;;;;;;23.91;42.85;103042.31;4758974;30;20767;-67
2022/07/08 07:17:24;;;;;;;10.18;2.70;;;;;;;23.87;42.85;103050.72;4761013;30;20771;-67
2022/07/08 07:19:49;;;;;;;9.27;3.10;;;;;;;23.90;42.86;103039.81;4757823;30;20043;-67
2022/07/08 07:22:16;;;;;;;8.77;2.63;;;;;;;23.85;42.99;103042.91;4760446;30;20047;-67
2022/07/08 07:24:42;;;;;;;8.73;3.28;;;;;;;23.93;42.86;103036.81;4757687;30;20040;-66
2022/07/08 07:27:07;;;;;;;9.40;3.13;;;;;;;23.91;43.07;103044.97;4758610;30;20619;-66
2022/07/08 07:29:33;;;;;;;6.85;2.45;;;;;;;23.90;42.99;103039.81;4754976;30;20074;-66
2022/07/08 07:31:59;;;;;;;7.15;2.75;;;;;;;23.88;42.98;103045.28;4761412;30;20511;-66
2022/07/08 07:34:25;;;;;;;8.38;2.80;;;;;;;23.93;42.88;103048.31;4759306;30;20123;-66
2022/07/08 07:36:51;;;;;;;7.55;2.65;;;;;;;23.91;42.80;103047.63;4758495;30;20059;-66
2022/07/08 07:39:16;;;;;;;6.40;2.75;;;;;;;23.93;43.06;103052.78;4760338;30;20391;-66
2022/07/08 07:41:42;;;;;;;8.70;3.10;;;;;;;23.97;42.66;103060.31;4759185;30;20048;-66
2022/07/08 07:44:07;;;;;;;13.27;2.90;;;;;;;24.17;43.17;103055.63;4713053;30;20058;-76
2022/07/08 07:46:33;;;;;;;28.20;4.97;;;;;;;24.41;42.66;103057.66;4750124;30;20052;-76
2022/07/08 07:48:59;;;;;;;22.23;5.10;;;;;;;24.57;42.57;103059.59;4736834;30;20043;-75
2022/07/08 07:51:25;;;;;;;26.50;5.53;;;;;;;24.60;42.63;103060.13;4758466;30;20036;-74
2022/07/08 07:53:51;;;;;;;19.67;4.50;;;;;;;24.70;42.51;103060.84;4751774;30;20092;-74
2022/07/08 07:56:17;;;;;;;17.33;4.72;;;;;;;24.75;42.47;103067.50;4756547;30;20574;-76
2022/07/08 07:58:42;;;;;;;18.27;3.83;;;;;;;24.80;42.08;103058.06;4745649;30;20407;-74
2022/07/08 08:01:08;;;;;;;19.35;4.13;;;;;;;24.80;42.18;103062.56;4746819;30;20051;-75
2022/07/08 08:03:33;;;;;;;14.65;3.80;;;;;;;24.66;42.51;103064.00;4755409;30;20173;-70
2022/07/08 08:06:00;;;;;;;11.90;4.05;;;;;;;24.88;41.82;103068.75;4757109;30;20914;-74
2022/07/08 08:08:26;;;;;;;8.65;3.67;;;;;;;24.80;42.08;103071.41;4751084;29;20048;-73
2022/07/08 08:10:52;;;;;;;12.27;3.58;;;;;;;24.90;42.04;103079.25;4755176;30;20044;-70
2022/07/08 08:13:19;;;;;;;11.45;3.28;;;;;;;24.90;42.23;103076.59;4758071;30;20488;-72
2022/07/08 08:15:45;;;;;;;14.52;3.75;;;;;;;24.96;41.85;103078.63;4748646;30;20798;-72
2022/07/08 08:18:10;;;;;;;12.40;3.22;;;;;;;24.91;42.03;103084.41;4750882;30;20050;-72
2022/07/08 08:20:37;;;;;;;7.65;3.03;;;;;;;24.93;42.18;103077.09;4755106;30;20051;-72
2022/07/08 08:23:03;;;;;;;13.73;3.72;;;;;;;25.04;41.78;103078.69;4754547;29;20055;-72
2022/07/08 08:25:29;;;;;;;11.25;2.90;;;;;;;25.04;41.88;103077.84;4751425;30;20468;-71
2022/07/08 08:27:56;;;;;;;12.60;3.63;;;;;;;25.06;41.78;103068.69;4755439;30;20046;-71
2022/07/08 08:30:22;;;;;;;11.88;3.45;;;;;;;25.13;41.68;103071.53;4756938;30;20083;-70
2022/07/08 08:32:48;;;;;;;10.55;2.92;;;;;;;25.12;41.63;103067.22;4742371;30;20051;-70
2022/07/08 08:35:14;;;;;;;12.48;3.20;;;;;;;25.12;41.63;103070.72;4753169;30;20074;-73
2022/07/08 08:37:39;;;;;;;10.02;2.83;;;;;;;25.16;41.77;103076.56;4753123;30;20043;-70
2022/07/08 08:40:09;;;;;;;10.90;3.45;;;;;;;25.14;41.52;103078.56;4755800;30;20058;-71
2022/07/08 08:42:35;;;;;;;;;;;;;;;25.12;41.66;103073.38;4753111;30;20098;-69
2022/07/08 08:45:02;;;;;;;9.15;2.72;;;;;;;25.15;41.88;103086.41;4753559;30;20611;-69
2022/07/08 08:47:30;;;;;;;12.57;3.65;;;;;;;25.13;41.89;103082.22;4740022;30;20039;-69
2022/07/08 08:49:57;;;;;;;8.25;3.22;;;;;;;25.19;41.59;103087.75;4756347;30;20040;-70
2022/07/08 08:52:24;;;;;;;9.73;2.92;;;;;;;25.14;41.67;103082.06;4723091;30;20070;-68
2022/07/08 08:54:51;;;;;;;11.25;3.22;;;;;;;25.06;42.14;103082.03;4762253;29;20067;-68
2022/07/08 08:57:18;;;;;;;8.02;3.15;;;;;;;25.08;42.01;103085.38;4762772;29;20051;-68
2022/07/08 08:59:45;;;;;;;9.20;2.80;;;;;;;25.00;42.09;103080.00;4748326;30;20052;-69
2022/07/08 09:02:12;;;;;;;10.57;3.15;;;;;;;25.02;42.26;103088.69;4736722;30;20162;-69
2022/07/08 09:04:38;;;;;;;10.10;3.20;;;;;;;24.93;42.10;103078.94;4758263;30;20047;-69
2022/07/08 09:07:03;;;;;;;7.03;2.58;;;;;;;24.89;42.13;103078.41;4754554;30;20040;-69
2022/07/08 09:09:29;;;;;;;8.75;2.88;;;;;;;24.87;42.49;103077.75;4755727;30;20130;-70
2022/07/08 09:11:54;;;;;;;7.00;2.60;;;;;;;24.88;42.14;103075.91;4748698;30;20498;-67
2022/07/08 09:14:21;;;;;;;8.00;2.67;;;;;;;24.83;42.62;103068.41;4753662;30;20044;-67
2022/07/08 09:17:10;;;;;;;9.05;2.60;;;;;;;24.82;42.26;103066.75;4747084;30;20094;-67
2022/07/08 09:19:41;;;;;;;5.90;2.53;;;;;;;24.74;42.29;103066.69;4751834;30;20048;-67
2022/07/08 09:22:07;;;;;;;5.57;2.47;;;;;;;24.68;42.53;103070.81;4752984;30;20047;-69
2022/07/08 09:24:34;;;;;;;8.68;2.75;;;;;;;24.83;42.33;103072.91;4756020;30;20391;-69
2022/07/08 09:27:04;;;;;;;6.72;2.72;;;;;;;24.98;42.19;103071.31;4758698;30;20048;-66
2022/07/08 09:29:29;;;;;;;;;;;;;;;25.10;41.92;103078.03;4752413;30;21062;-77
2022/07/08 09:32:15;;;;;;;9.63;2.47;;;;;;;25.01;42.24;103076.34;4740850;30;19961;-69
2022/07/08 09:34:44;;;;;;;11.57;2.30;;;;;;;24.75;42.82;103073.69;4751789;30;20052;-67
2022/07/08 09:37:17;;;;;;;7.25;2.40;;;;;;;24.98;42.53;103073.97;4751859;30;20044;-69
2022/07/08 09:39:46;;;;;;;8.30;2.50;;;;;;;25.03;42.38;103074.34;4760848;30;20172;-72
2022/07/08 09:42:14;;;;;;;7.13;2.95;;;;;;;25.03;42.61;103074.34;4756459;30;20071;-66
2022/07/08 09:44:40;;;;;;;9.07;2.72;;;;;;;24.76;43.52;103072.69;4755125;30;20052;-65
2022/07/08 09:47:13;;;;;;;4.50;2.30;;;;;;;24.93;43.03;103071.78;4746200;30;20058;-66
2022/07/08 09:49:43;;;;;;;6.50;2.78;;;;;;;24.95;43.16;103074.28;4755475;30;20058;-66
2022/07/08 09:52:23;;;;;;;6.30;2.50;;;;;;;24.96;43.45;103084.81;4755838;30;20621;-66
2022/07/08 09:55:02;;;;;;;3.95;2.50;;;;;;;24.96;43.15;103075.97;4753767;30;20051;-66
2022/07/08 09:57:31;;;;;;;5.90;1.90;;;;;;;24.96;43.12;103076.81;4753086;29;20052;-66
2022/07/08 09:59:59;;;;;;;3.97;2.53;;;;;;;24.96;43.17;103079.47;4744005;30;20544;-67
2022/07/08 10:02:27;;;;;;;8.00;2.40;;;;;;;24.96;42.95;103078.63;4743637;29;20043;-66
2022/07/08 10:04:54;;;;;;;5.68;2.10;;;;;;;24.98;43.12;103076.63;4752203;30;20056;-66
2022/07/08 10:07:20;;;;;;;4.53;2.05;;;;;;;24.98;43.21;103077.47;4752804;30;20044;-65
2022/07/08 10:09:45;;;;;;;5.60;2.22;;;;;;;24.99;43.22;103073.84;4759073;30;20059;-66
2022/07/08 10:12:14;;;;;;;4.55;2.55;;;;;;;25.02;43.28;103082.50;4756767;30;21583;-66
2022/07/08 10:14:45;;;;;;;4.13;2.08;;;;;;;24.99;43.24;103086.31;4752924;30;20047;-66
2022/07/08 10:17:16;;;;;;;5.47;2.15;;;;;;;24.99;43.02;103073.84;4738710;30;20536;-66
2022/07/08 10:19:43;;;;;;;4.47;2.20;;;;;;;25.06;43.14;103083.84;4757980;30;20054;-66
2022/07/08 10:22:10;;;;;;;5.28;2.15;;;;;;;24.98;43.07;103074.81;4755203;30;20780;-66
2022/07/08 10:24:39;;;;;;;5.57;2.40;;;;;;;25.02;43.39;103083.34;4757718;30;20109;-66
2022/07/08 10:27:05;;;;;;;6.03;2.28;;;;;;;25.04;42.88;103083.19;4751890;30;20063;-66
2022/07/08 10:29:32;;;;;;;3.13;1.67;;;;;;;25.06;42.99;103083.84;4751022;30;20174;-66
2022/07/08 10:31:59;;;;;;;5.03;2.22;;;;;;;25.02;43.10;103077.19;4736896;30;20132;-66
2022/07/08 10:34:33;;;;;;;3.53;1.75;;;;;;;25.03;43.33;103078.84;4755038;30;20046;-66
2022/07/08 10:37:00;;;;;;;6.47;2.50;;;;;;;25.10;42.98;103080.69;4759750;30;20837;-66
2022/07/08 10:39:42;;;;;;;4.85;2.03;;;;;;;25.11;42.93;103092.19;4757461;30;20484;-66
2022/07/08 10:42:09;;;;;;;5.05;2.30;;;;;;;25.12;42.97;103088.53;4757570;30;20044;-66
2022/07/08 10:44:44;;;;;;;4.43;1.98;;;;;;;25.12;43.33;103084.03;4757695;30;20040;-66
2022/07/08 10:47:16;;;;;;;4.82;1.90;;;;;;;25.12;43.11;103086.69;4742248;30;20046;-66
2022/07/08 10:49:47;;;;;;;4.93;2.00;;;;;;;25.11;42.96;103082.38;4757387;30;20060;-66
2022/07/08 10:52:14;;;;;;;4.82;2.13;;;;;;;25.11;43.05;103077.03;4756577;30;20039;-66
2022/07/08 10:54:39;;;;;;;3.55;2.08;;;;;;;25.10;43.33;103080.69;4759512;30;20569;-66
2022/07/08 10:57:26;;;;;;;3.85;2.30;;;;;;;25.13;43.28;103088.38;4756830;30;20048;-66
2022/07/08 11:00:13;;;;;;;3.92;1.60;;;;;;;25.15;43.12;103083.75;4754668;30;20113;-66
2022/07/08 11:02:44;;;;;;;4.93;1.90;;;;;;;25.17;43.15;103075.59;4737778;30;20055;-66
2022/07/08 11:05:35;;;;;;;2.72;1.80;;;;;;;25.20;42.92;103080.59;4754143;30;20104;-66
2022/07/08 11:08:19;;;;;;;4.30;1.70;;;;;;;25.20;43.05;103073.41;4757499;30;20487;-66
2022/07/08 11:10:46;;;;;;;3.63;2.28;;;;;;;25.20;42.92;103077.91;4757284;30;20051;-66
2022/07/08 11:13:12;;;;;;;1.65;1.25;;;;;;;25.22;43.06;103075.91;4755945;30;20047;-66
2022/07/08 11:15:37;;;;;;;5.72;2.10;;;;;;;25.19;43.01;103071.75;4757091;30;20046;-66
2022/07/08 11:18:04;;;;;;;3.45;1.90;;;;;;;25.33;42.47;103067.63;4740402;30;20047;-66
2022/07/08 11:20:31;;;;;;;3.45;1.92;;;;;;;25.30;43.08;103074.09;4759234;30;20036;-65
2022/07/08 11:22:57;;;;;;;2.47;1.80;;;;;;;25.28;42.75;103070.75;4758417;30;20659;-66
2022/07/08 11:25:23;;;;;;;3.00;1.80;;;;;;;25.32;42.93;103060.63;4759353;30;20050;-64
2022/07/08 11:27:49;;;;;;;3.88;1.98;;;;;;;25.38;42.98;103053.81;4754491;30;21522;-78